Langston, Oklahoma
Current Conditions -  °F | °C
As of 8:53 PM on Friday 21 Nov 2014 (Local Time) from KGOK Reporting Station
Haze Haze  
Wind Chill: 52°   Ceiling: 900
Heat Index: 52°   Visibility: 5mi
Dew Point: 46°   Wind: 3mph
Humidity: 80%   Direction: 320°NW
Pressure: 30.05"   Gusts: NA
Location:  35.95°N, 97.26°W
Report Text: KGOK 220253Z AUTO 32003KT 5SM HZ OVC009 11/08 A3005 RMK AO2 SLP177 T01110078 51005
Loading
Personal Weather Stations






























Interactive Weather Map New forecast layout! Learn more

10-Day Weather Forecast

Advertisements
Track Severe Weather on mobile